sensor_id;sensor_type;location;lat;lon;timestamp;temperature;humidity
3053;DHT22;1536;51.098;6.414;2023-07-02T00:01:58;20.20;99.90
3053;DHT22;1536;51.098;6.414;2023-07-02T00:04:25;20.20;99.90
3053;DHT22;1536;51.098;6.414;2023-07-02T00:06:52;20.20;99.90
3053;DHT22;1536;51.098;6.414;2023-07-02T00:09:19;20.20;99.90
3053;DHT22;1536;51.098;6.414;2023-07-02T00:11:46;20.10;99.90
3053;DHT22;1536;51.098;6.414;2023-07-02T00:14:14;20.10;99.90
3053;DHT22;1536;51.098;6.414;2023-07-02T00:16:43;20.10;99.90
3053;DHT22;1536;51.098;6.414;2023-07-02T00:19:12;20.10;99.90
3053;DHT22;1536;51.098;6.414;2023-07-02T00:21:39;20.10;99.90
3053;DHT22;1536;51.098;6.414;2023-07-02T00:24:07;20.10;99.90
3053;DHT22;1536;51.098;6.414;2023-07-02T00:26:36;20.00;99.90
3053;DHT22;1536;51.098;6.414;2023-07-02T00:29:05;20.00;99.90
3053;DHT22;1536;51.098;6.414;2023-07-02T00:31:33;20.00;99.90
3053;DHT22;1536;51.098;6.414;2023-07-02T00:34:01;20.00;99.90
3053;DHT22;1536;51.098;6.414;2023-07-02T00:36:29;19.90;99.90
3053;DHT22;1536;51.098;6.414;2023-07-02T00:38:56;19.90;99.90
3053;DHT22;1536;51.098;6.414;2023-07-02T00:41:24;19.90;99.90
3053;DHT22;1536;51.098;6.414;2023-07-02T00:43:51;19.90;99.90
3053;DHT22;1536;51.098;6.414;2023-07-02T00:46:21;19.90;99.90
3053;DHT22;1536;51.098;6.414;2023-07-02T00:48:49;19.80;99.90
3053;DHT22;1536;51.098;6.414;2023-07-02T00:51:18;19.80;99.90
3053;DHT22;1536;51.098;6.414;2023-07-02T00:53:47;19.80;99.90
3053;DHT22;1536;51.098;6.414;2023-07-02T00:56:15;19.80;99.90
3053;DHT22;1536;51.098;6.414;2023-07-02T00:58:43;19.80;99.90
3053;DHT22;1536;51.098;6.414;2023-07-02T01:01:14;19.80;99.90
3053;DHT22;1536;51.098;6.414;2023-07-02T01:03:52;19.80;99.90
3053;DHT22;1536;51.098;6.414;2023-07-02T01:06:22;19.70;99.90
3053;DHT22;1536;51.098;6.414;2023-07-02T01:08:53;19.70;99.90
3053;DHT22;1536;51.098;6.414;2023-07-02T01:11:21;19.70;99.90
3053;DHT22;1536;51.098;6.414;2023-07-02T01:13:50;19.70;99.90
3053;DHT22;1536;51.098;6.414;2023-07-02T01:16:19;19.60;99.90
3053;DHT22;1536;51.098;6.414;2023-07-02T01:18:47;19.60;99.90
3053;DHT22;1536;51.098;6.414;2023-07-02T01:21:22;19.60;99.90
3053;DHT22;1536;51.098;6.414;2023-07-02T01:23:49;19.60;99.90
3053;DHT22;1536;51.098;6.414;2023-07-02T01:26:16;19.60;99.90
3053;DHT22;1536;51.098;6.414;2023-07-02T01:28:45;19.50;99.90
3053;DHT22;1536;51.098;6.414;2023-07-02T01:31:12;19.50;99.90
3053;DHT22;1536;51.098;6.414;2023-07-02T01:33:40;19.50;99.90
3053;DHT22;1536;51.098;6.414;2023-07-02T01:36:07;19.50;99.90
3053;DHT22;1536;51.098;6.414;2023-07-02T01:38:35;19.50;99.90
3053;DHT22;1536;51.098;6.414;2023-07-02T01:41:02;19.40;99.90
3053;DHT22;1536;51.098;6.414;2023-07-02T01:43:29;19.40;99.90
3053;DHT22;1536;51.098;6.414;2023-07-02T01:45:57;19.40;99.90
3053;DHT22;1536;51.098;6.414;2023-07-02T01:48:24;19.30;99.90
3053;DHT22;1536;51.098;6.414;2023-07-02T01:50:51;19.30;99.90
3053;DHT22;1536;51.098;6.414;2023-07-02T01:53:18;19.30;99.90
3053;DHT22;1536;51.098;6.414;2023-07-02T01:55:46;19.30;99.90
3053;DHT22;1536;51.098;6.414;2023-07-02T01:58:13;19.20;99.90
3053;DHT22;1536;51.098;6.414;2023-07-02T02:00:40;19.20;99.90
3053;DHT22;1536;51.098;6.414;2023-07-02T02:03:07;19.20;99.90
3053;DHT22;1536;51.098;6.414;2023-07-02T02:05:33;19.20;99.90
3053;DHT22;1536;51.098;6.414;2023-07-02T02:08:00;19.10;99.90
3053;DHT22;1536;51.098;6.414;2023-07-02T02:10:27;19.10;99.90
3053;DHT22;1536;51.098;6.414;2023-07-02T02:12:55;19.10;99.90
3053;DHT22;1536;51.098;6.414;2023-07-02T02:15:22;19.10;99.90
3053;DHT22;1536;51.098;6.414;2023-07-02T02:17:49;19.10;99.90
3053;DHT22;1536;51.098;6.414;2023-07-02T02:20:16;19.00;99.90
3053;DHT22;1536;51.098;6.414;2023-07-02T02:22:43;19.00;99.90
3053;DHT22;1536;51.098;6.414;2023-07-02T02:25:10;19.00;99.90
3053;DHT22;1536;51.098;6.414;2023-07-02T02:27:37;19.00;99.90
3053;DHT22;1536;51.098;6.414;2023-07-02T02:30:07;19.00;99.90
3053;DHT22;1536;51.098;6.414;2023-07-02T02:32:34;19.00;99.90
3053;DHT22;1536;51.098;6.414;2023-07-02T02:35:01;19.00;99.90
3053;DHT22;1536;51.098;6.414;2023-07-02T02:37:28;19.00;99.90
3053;DHT22;1536;51.098;6.414;2023-07-02T02:39:56;19.00;99.90
3053;DHT22;1536;51.098;6.414;2023-07-02T02:42:24;19.00;99.90
3053;DHT22;1536;51.098;6.414;2023-07-02T02:44:51;19.00;99.90
3053;DHT22;1536;51.098;6.414;2023-07-02T02:47:19;19.00;99.90
3053;DHT22;1536;51.098;6.414;2023-07-02T02:49:46;19.00;99.90
3053;DHT22;1536;51.098;6.414;2023-07-02T02:52:13;19.00;99.90
3053;DHT22;1536;51.098;6.414;2023-07-02T02:54:40;19.00;99.90
3053;DHT22;1536;51.098;6.414;2023-07-02T02:57:08;19.00;99.90
3053;DHT22;1536;51.098;6.414;2023-07-02T02:59:34;19.00;99.90
3053;DHT22;1536;51.098;6.414;2023-07-02T03:02:04;19.00;99.90
3053;DHT22;1536;51.098;6.414;2023-07-02T03:04:32;19.00;99.90
3053;DHT22;1536;51.098;6.414;2023-07-02T03:06:59;19.00;99.90
3053;DHT22;1536;51.098;6.414;2023-07-02T03:09:26;19.00;99.90
3053;DHT22;1536;51.098;6.414;2023-07-02T03:11:52;19.00;99.90
3053;DHT22;1536;51.098;6.414;2023-07-02T03:14:19;19.00;99.90
3053;DHT22;1536;51.098;6.414;2023-07-02T03:16:46;19.00;99.90
3053;DHT22;1536;51.098;6.414;2023-07-02T03:19:13;19.00;99.90
3053;DHT22;1536;51.098;6.414;2023-07-02T03:21:43;19.00;99.90
3053;DHT22;1536;51.098;6.414;2023-07-02T03:24:09;19.00;99.90
3053;DHT22;1536;51.098;6.414;2023-07-02T03:26:37;19.00;99.90
3053;DHT22;1536;51.098;6.414;2023-07-02T03:29:04;19.00;99.90
3053;DHT22;1536;51.098;6.414;2023-07-02T03:31:31;19.00;99.90
3053;DHT22;1536;51.098;6.414;2023-07-02T03:33:57;19.00;99.90
3053;DHT22;1536;51.098;6.414;2023-07-02T03:36:24;19.00;99.90
3053;DHT22;1536;51.098;6.414;2023-07-02T03:38:55;19.00;99.90
3053;DHT22;1536;51.098;6.414;2023-07-02T03:41:22;19.00;99.90
3053;DHT22;1536;51.098;6.414;2023-07-02T03:43:48;19.00;99.90
3053;DHT22;1536;51.098;6.414;2023-07-02T03:46:15;19.00;99.90
3053;DHT22;1536;51.098;6.414;2023-07-02T03:48:42;19.00;99.90
3053;DHT22;1536;51.098;6.414;2023-07-02T03:51:08;19.00;99.90
3053;DHT22;1536;51.098;6.414;2023-07-02T03:53:35;19.00;99.90
3053;DHT22;1536;51.098;6.414;2023-07-02T03:56:04;19.00;99.90
3053;DHT22;1536;51.098;6.414;2023-07-02T03:58:30;19.00;99.90
3053;DHT22;1536;51.098;6.414;2023-07-02T04:00:57;19.00;99.90
3053;DHT22;1536;51.098;6.414;2023-07-02T04:03:24;19.00;99.90
3053;DHT22;1536;51.098;6.414;2023-07-02T04:05:51;19.00;99.90
3053;DHT22;1536;51.098;6.414;2023-07-02T04:08:19;19.00;99.90
3053;DHT22;1536;51.098;6.414;2023-07-02T04:10:47;19.10;99.90
3053;DHT22;1536;51.098;6.414;2023-07-02T04:13:15;19.10;99.90
3053;DHT22;1536;51.098;6.414;2023-07-02T04:15:42;19.10;99.90
3053;DHT22;1536;51.098;6.414;2023-07-02T04:18:09;19.10;99.90
3053;DHT22;1536;51.098;6.414;2023-07-02T04:20:36;19.10;99.90
3053;DHT22;1536;51.098;6.414;2023-07-02T04:23:04;19.10;99.90
3053;DHT22;1536;51.098;6.414;2023-07-02T04:25:31;19.10;99.90
3053;DHT22;1536;51.098;6.414;2023-07-02T04:27:57;19.10;99.90
3053;DHT22;1536;51.098;6.414;2023-07-02T04:30:25;19.10;99.90
3053;DHT22;1536;51.098;6.414;2023-07-02T04:32:54;19.10;99.90
3053;DHT22;1536;51.098;6.414;2023-07-02T04:35:22;19.10;99.90
3053;DHT22;1536;51.098;6.414;2023-07-02T04:37:49;19.10;99.90
3053;DHT22;1536;51.098;6.414;2023-07-02T04:40:16;19.10;99.90
3053;DHT22;1536;51.098;6.414;2023-07-02T04:42:43;19.10;99.90
3053;DHT22;1536;51.098;6.414;2023-07-02T04:45:12;19.10;99.90
3053;DHT22;1536;51.098;6.414;2023-07-02T04:47:43;19.10;99.90
3053;DHT22;1536;51.098;6.414;2023-07-02T04:50:10;19.10;99.90
3053;DHT22;1536;51.098;6.414;2023-07-02T04:52:37;19.20;99.90
3053;DHT22;1536;51.098;6.414;2023-07-02T04:55:05;19.20;99.90
3053;DHT22;1536;51.098;6.414;2023-07-02T04:57:32;19.20;99.90
3053;DHT22;1536;51.098;6.414;2023-07-02T04:59:59;19.20;99.90
3053;DHT22;1536;51.098;6.414;2023-07-02T05:02:26;19.20;99.90
3053;DHT22;1536;51.098;6.414;2023-07-02T05:04:54;19.30;99.90
3053;DHT22;1536;51.098;6.414;2023-07-02T05:07:21;19.30;99.90
3053;DHT22;1536;51.098;6.414;2023-07-02T05:09:49;19.30;99.90
3053;DHT22;1536;51.098;6.414;2023-07-02T05:12:18;19.30;99.90
3053;DHT22;1536;51.098;6.414;2023-07-02T05:14:45;19.30;99.90
3053;DHT22;1536;51.098;6.414;2023-07-02T05:17:12;19.40;99.90
3053;DHT22;1536;51.098;6.414;2023-07-02T05:19:40;19.40;99.90
3053;DHT22;1536;51.098;6.414;2023-07-02T05:22:09;19.40;99.90
3053;DHT22;1536;51.098;6.414;2023-07-02T05:24:36;19.40;99.90
3053;DHT22;1536;51.098;6.414;2023-07-02T05:27:04;19.50;99.90
3053;DHT22;1536;51.098;6.414;2023-07-02T05:29:30;19.50;99.90
3053;DHT22;1536;51.098;6.414;2023-07-02T05:31:58;19.50;99.90
3053;DHT22;1536;51.098;6.414;2023-07-02T05:34:26;19.50;99.90
3053;DHT22;1536;51.098;6.414;2023-07-02T05:36:53;19.50;99.90
3053;DHT22;1536;51.098;6.414;2023-07-02T05:39:21;19.50;99.90
3053;DHT22;1536;51.098;6.414;2023-07-02T05:41:48;19.60;99.90
3053;DHT22;1536;51.098;6.414;2023-07-02T05:44:15;19.50;99.90
3053;DHT22;1536;51.098;6.414;2023-07-02T05:46:43;19.60;99.90
3053;DHT22;1536;51.098;6.414;2023-07-02T05:49:09;19.60;99.90
3053;DHT22;1536;51.098;6.414;2023-07-02T05:51:36;19.70;99.90
3053;DHT22;1536;51.098;6.414;2023-07-02T05:54:05;19.70;99.90
3053;DHT22;1536;51.098;6.414;2023-07-02T05:56:36;19.70;99.90
3053;DHT22;1536;51.098;6.414;2023-07-02T05:59:03;19.70;99.90
3053;DHT22;1536;51.098;6.414;2023-07-02T06:01:29;19.70;99.90
3053;DHT22;1536;51.098;6.414;2023-07-02T06:03:56;19.80;99.90
3053;DHT22;1536;51.098;6.414;2023-07-02T06:06:23;19.80;99.90
3053;DHT22;1536;51.098;6.414;2023-07-02T06:08:50;19.80;99.90
3053;DHT22;1536;51.098;6.414;2023-07-02T06:11:17;19.80;99.90
3053;DHT22;1536;51.098;6.414;2023-07-02T06:13:45;19.90;99.90
3053;DHT22;1536;51.098;6.414;2023-07-02T06:16:12;19.90;99.90
3053;DHT22;1536;51.098;6.414;2023-07-02T06:18:39;20.00;99.90
3053;DHT22;1536;51.098;6.414;2023-07-02T06:21:06;20.00;99.90
3053;DHT22;1536;51.098;6.414;2023-07-02T06:23:40;20.10;99.90
3053;DHT22;1536;51.098;6.414;2023-07-02T06:26:07;20.10;99.90
3053;DHT22;1536;51.098;6.414;2023-07-02T06:28:33;20.10;99.90
3053;DHT22;1536;51.098;6.414;2023-07-02T06:31:01;20.10;99.90
3053;DHT22;1536;51.098;6.414;2023-07-02T06:33:28;20.20;99.90
3053;DHT22;1536;51.098;6.414;2023-07-02T06:35:55;20.20;99.90
3053;DHT22;1536;51.098;6.414;2023-07-02T06:38:22;20.30;99.90
3053;DHT22;1536;51.098;6.414;2023-07-02T06:40:48;20.30;99.90
3053;DHT22;1536;51.098;6.414;2023-07-02T06:43:15;20.30;99.90
3053;DHT22;1536;51.098;6.414;2023-07-02T06:45:42;20.40;99.90
3053;DHT22;1536;51.098;6.414;2023-07-02T06:48:13;20.40;99.90
3053;DHT22;1536;51.098;6.414;2023-07-02T06:50:44;20.50;99.90
3053;DHT22;1536;51.098;6.414;2023-07-02T06:53:11;20.60;99.90
3053;DHT22;1536;51.098;6.414;2023-07-02T06:55:39;20.60;99.90
3053;DHT22;1536;51.098;6.414;2023-07-02T06:58:07;20.60;99.90
3053;DHT22;1536;51.098;6.414;2023-07-02T07:00:33;20.60;99.90
3053;DHT22;1536;51.098;6.414;2023-07-02T07:03:02;20.60;99.90
3053;DHT22;1536;51.098;6.414;2023-07-02T07:05:30;20.60;99.90
3053;DHT22;1536;51.098;6.414;2023-07-02T07:07:58;20.70;99.90
3053;DHT22;1536;51.098;6.414;2023-07-02T07:10:25;20.70;99.90
3053;DHT22;1536;51.098;6.414;2023-07-02T07:12:52;20.80;99.90
3053;DHT22;1536;51.098;6.414;2023-07-02T07:15:19;20.80;99.90
3053;DHT22;1536;51.098;6.414;2023-07-02T07:17:46;20.80;99.90
3053;DHT22;1536;51.098;6.414;2023-07-02T07:20:13;20.90;99.90
3053;DHT22;1536;51.098;6.414;2023-07-02T07:22:41;21.00;99.90
3053;DHT22;1536;51.098;6.414;2023-07-02T07:25:08;21.00;99.90
3053;DHT22;1536;51.098;6.414;2023-07-02T07:27:35;21.10;99.90
3053;DHT22;1536;51.098;6.414;2023-07-02T07:30:03;21.10;99.90
3053;DHT22;1536;51.098;6.414;2023-07-02T07:32:30;21.20;99.90
3053;DHT22;1536;51.098;6.414;2023-07-02T07:34:57;21.20;99.90
3053;DHT22;1536;51.098;6.414;2023-07-02T07:37:24;21.20;99.90
3053;DHT22;1536;51.098;6.414;2023-07-02T07:39:53;21.30;99.90
3053;DHT22;1536;51.098;6.414;2023-07-02T07:42:19;21.30;99.90
3053;DHT22;1536;51.098;6.414;2023-07-02T07:44:46;21.30;99.90
3053;DHT22;1536;51.098;6.414;2023-07-02T07:47:13;21.30;99.90
3053;DHT22;1536;51.098;6.414;2023-07-02T07:49:40;21.40;99.90
3053;DHT22;1536;51.098;6.414;2023-07-02T07:52:07;21.40;99.90
3053;DHT22;1536;51.098;6.414;2023-07-02T07:54:34;21.50;99.90
3053;DHT22;1536;51.098;6.414;2023-07-02T07:57:03;21.60;99.90
3053;DHT22;1536;51.098;6.414;2023-07-02T07:59:30;21.60;99.90
3053;DHT22;1536;51.098;6.414;2023-07-02T08:01:57;21.70;99.90
3053;DHT22;1536;51.098;6.414;2023-07-02T08:04:25;21.70;99.90
3053;DHT22;1536;51.098;6.414;2023-07-02T08:06:51;21.70;99.90
3053;DHT22;1536;51.098;6.414;2023-07-02T08:09:20;21.70;99.90
3053;DHT22;1536;51.098;6.414;2023-07-02T08:11:47;21.70;99.90
3053;DHT22;1536;51.098;6.414;2023-07-02T08:14:16;21.70;99.90
3053;DHT22;1536;51.098;6.414;2023-07-02T08:16:43;21.70;99.90
3053;DHT22;1536;51.098;6.414;2023-07-02T08:19:10;21.60;99.90
3053;DHT22;1536;51.098;6.414;2023-07-02T08:21:36;21.70;99.90
3053;DHT22;1536;51.098;6.414;2023-07-02T08:24:04;21.70;99.90
3053;DHT22;1536;51.098;6.414;2023-07-02T08:26:31;21.80;99.90
3053;DHT22;1536;51.098;6.414;2023-07-02T08:28:58;21.90;99.90
3053;DHT22;1536;51.098;6.414;2023-07-02T08:31:27;21.90;99.90
3053;DHT22;1536;51.098;6.414;2023-07-02T08:33:53;22.00;99.90
3053;DHT22;1536;51.098;6.414;2023-07-02T08:36:20;21.90;99.90
3053;DHT22;1536;51.098;6.414;2023-07-02T08:38:47;21.90;99.90
3053;DHT22;1536;51.098;6.414;2023-07-02T08:41:14;21.80;99.90
3053;DHT22;1536;51.098;6.414;2023-07-02T08:43:41;21.70;99.90
3053;DHT22;1536;51.098;6.414;2023-07-02T08:46:08;21.60;99.90
3053;DHT22;1536;51.098;6.414;2023-07-02T08:48:37;21.60;99.90
3053;DHT22;1536;51.098;6.414;2023-07-02T08:51:04;21.50;99.90
3053;DHT22;1536;51.098;6.414;2023-07-02T08:53:31;21.50;99.90
3053;DHT22;1536;51.098;6.414;2023-07-02T08:56:00;21.50;99.90
3053;DHT22;1536;51.098;6.414;2023-07-02T08:58:27;21.50;99.90
3053;DHT22;1536;51.098;6.414;2023-07-02T09:01:07;21.50;99.90
3053;DHT22;1536;51.098;6.414;2023-07-02T09:03:36;21.70;99.90
3053;DHT22;1536;51.098;6.414;2023-07-02T09:06:04;21.70;99.90
3053;DHT22;1536;51.098;6.414;2023-07-02T09:08:31;21.70;99.90
3053;DHT22;1536;51.098;6.414;2023-07-02T09:11:07;21.70;99.90
3053;DHT22;1536;51.098;6.414;2023-07-02T09:13:42;21.60;99.90
3053;DHT22;1536;51.098;6.414;2023-07-02T09:16:23;21.60;99.90
3053;DHT22;1536;51.098;6.414;2023-07-02T09:19:01;21.50;99.90
3053;DHT22;1536;51.098;6.414;2023-07-02T09:21:37;21.50;99.90
3053;DHT22;1536;51.098;6.414;2023-07-02T09:24:15;21.40;99.90
3053;DHT22;1536;51.098;6.414;2023-07-02T09:26:43;21.40;99.90
3053;DHT22;1536;51.098;6.414;2023-07-02T09:29:10;21.50;99.90
3053;DHT22;1536;51.098;6.414;2023-07-02T09:31:44;21.60;99.90
3053;DHT22;1536;51.098;6.414;2023-07-02T09:34:13;21.70;99.90
3053;DHT22;1536;51.098;6.414;2023-07-02T09:36:41;21.70;99.90
3053;DHT22;1536;51.098;6.414;2023-07-02T09:39:11;21.80;99.90
3053;DHT22;1536;51.098;6.414;2023-07-02T09:41:39;21.90;99.90
3053;DHT22;1536;51.098;6.414;2023-07-02T09:44:06;21.90;99.90
3053;DHT22;1536;51.098;6.414;2023-07-02T09:46:37;22.00;99.90
3053;DHT22;1536;51.098;6.414;2023-07-02T09:49:05;22.00;99.90
3053;DHT22;1536;51.098;6.414;2023-07-02T09:51:34;22.00;99.90
3053;DHT22;1536;51.098;6.414;2023-07-02T09:54:01;22.10;99.90
3053;DHT22;1536;51.098;6.414;2023-07-02T09:56:28;22.10;99.90
3053;DHT22;1536;51.098;6.414;2023-07-02T09:58:55;22.00;99.90
3053;DHT22;1536;51.098;6.414;2023-07-02T10:01:22;22.00;99.90
3053;DHT22;1536;51.098;6.414;2023-07-02T10:03:49;22.00;99.90
3053;DHT22;1536;51.098;6.414;2023-07-02T10:06:20;22.00;99.90
3053;DHT22;1536;51.098;6.414;2023-07-02T10:08:55;22.00;99.90
3053;DHT22;1536;51.098;6.414;2023-07-02T10:11:33;22.00;99.90
3053;DHT22;1536;51.098;6.414;2023-07-02T10:14:00;21.90;99.90
3053;DHT22;1536;51.098;6.414;2023-07-02T10:16:27;21.80;99.90
3053;DHT22;1536;51.098;6.414;2023-07-02T10:19:08;21.70;99.90
3053;DHT22;1536;51.098;6.414;2023-07-02T10:21:35;21.70;99.90
3053;DHT22;1536;51.098;6.414;2023-07-02T10:24:11;21.70;99.90
3053;DHT22;1536;51.098;6.414;2023-07-02T10:26:38;21.70;99.90
3053;DHT22;1536;51.098;6.414;2023-07-02T10:29:06;21.80;99.90
3053;DHT22;1536;51.098;6.414;2023-07-02T10:31:33;21.90;99.90
3053;DHT22;1536;51.098;6.414;2023-07-02T10:34:00;22.00;99.90
3053;DHT22;1536;51.098;6.414;2023-07-02T10:36:27;21.90;99.90
3053;DHT22;1536;51.098;6.414;2023-07-02T10:39:01;22.00;99.90
3053;DHT22;1536;51.098;6.414;2023-07-02T10:41:30;22.00;99.90
3053;DHT22;1536;51.098;6.414;2023-07-02T10:44:08;22.10;99.90
3053;DHT22;1536;51.098;6.414;2023-07-02T10:46:43;22.00;99.90
3053;DHT22;1536;51.098;6.414;2023-07-02T10:49:10;21.90;99.90
3053;DHT22;1536;51.098;6.414;2023-07-02T10:51:38;21.90;99.90
3053;DHT22;1536;51.098;6.414;2023-07-02T10:54:05;21.80;99.90
3053;DHT22;1536;51.098;6.414;2023-07-02T10:56:34;21.70;99.90
3053;DHT22;1536;51.098;6.414;2023-07-02T10:59:01;21.70;99.90
3053;DHT22;1536;51.098;6.414;2023-07-02T11:01:29;21.70;99.90
3053;DHT22;1536;51.098;6.414;2023-07-02T11:03:57;21.80;99.90
3053;DHT22;1536;51.098;6.414;2023-07-02T11:06:25;21.80;99.90
3053;DHT22;1536;51.098;6.414;2023-07-02T11:08:52;22.00;99.90
3053;DHT22;1536;51.098;6.414;2023-07-02T11:11:22;22.30;99.90
3053;DHT22;1536;51.098;6.414;2023-07-02T11:13:52;22.60;99.90
3053;DHT22;1536;51.098;6.414;2023-07-02T11:16:23;22.90;99.30
3053;DHT22;1536;51.098;6.414;2023-07-02T11:18:53;23.10;98.80
3053;DHT22;1536;51.098;6.414;2023-07-02T11:21:23;23.30;98.20
3053;DHT22;1536;51.098;6.414;2023-07-02T11:23:49;23.50;97.60
3053;DHT22;1536;51.098;6.414;2023-07-02T11:26:16;23.50;97.20
3053;DHT22;1536;51.098;6.414;2023-07-02T11:28:51;23.40;95.80
3053;DHT22;1536;51.098;6.414;2023-07-02T11:31:25;23.40;95.50
3053;DHT22;1536;51.098;6.414;2023-07-02T11:33:52;23.30;94.50
3053;DHT22;1536;51.098;6.414;2023-07-02T11:36:20;23.20;94.50
3053;DHT22;1536;51.098;6.414;2023-07-02T11:38:49;23.30;94.70
3053;DHT22;1536;51.098;6.414;2023-07-02T11:41:19;23.40;94.00
3053;DHT22;1536;51.098;6.414;2023-07-02T11:43:46;23.60;93.80
3053;DHT22;1536;51.098;6.414;2023-07-02T11:46:15;23.80;93.70
3053;DHT22;1536;51.098;6.414;2023-07-02T11:48:42;24.00;93.90
3053;DHT22;1536;51.098;6.414;2023-07-02T11:51:09;24.20;93.40
3053;DHT22;1536;51.098;6.414;2023-07-02T11:53:37;24.40;93.00
3053;DHT22;1536;51.098;6.414;2023-07-02T11:56:04;24.50;92.60
3053;DHT22;1536;51.098;6.414;2023-07-02T11:58:31;24.60;92.40
3053;DHT22;1536;51.098;6.414;2023-07-02T12:00:59;24.60;92.40
3053;DHT22;1536;51.098;6.414;2023-07-02T12:03:28;24.70;92.10
3053;DHT22;1536;51.098;6.414;2023-07-02T12:05:55;24.80;91.00
3053;DHT22;1536;51.098;6.414;2023-07-02T12:08:22;24.90;91.00
3053;DHT22;1536;51.098;6.414;2023-07-02T12:10:49;24.90;90.70
3053;DHT22;1536;51.098;6.414;2023-07-02T12:13:16;25.00;90.80
3053;DHT22;1536;51.098;6.414;2023-07-02T12:15:43;25.20;90.80
3053;DHT22;1536;51.098;6.414;2023-07-02T12:18:10;25.30;91.00
3053;DHT22;1536;51.098;6.414;2023-07-02T12:20:39;25.40;90.80
3053;DHT22;1536;51.098;6.414;2023-07-02T12:23:06;25.40;90.80
3053;DHT22;1536;51.098;6.414;2023-07-02T12:25:33;25.40;90.40
3053;DHT22;1536;51.098;6.414;2023-07-02T12:27:59;25.40;90.40
3053;DHT22;1536;51.098;6.414;2023-07-02T12:30:26;25.30;89.50
3053;DHT22;1536;51.098;6.414;2023-07-02T12:32:53;25.10;89.70
3053;DHT22;1536;51.098;6.414;2023-07-02T12:35:20;24.90;90.20
3053;DHT22;1536;51.098;6.414;2023-07-02T12:37:49;24.80;90.10
3053;DHT22;1536;51.098;6.414;2023-07-02T12:40:17;24.60;90.10
3053;DHT22;1536;51.098;6.414;2023-07-02T12:42:45;24.50;90.10
3053;DHT22;1536;51.098;6.414;2023-07-02T12:45:12;24.40;89.40
3053;DHT22;1536;51.098;6.414;2023-07-02T12:47:40;24.40;89.90
3053;DHT22;1536;51.098;6.414;2023-07-02T12:50:08;24.40;90.00
3053;DHT22;1536;51.098;6.414;2023-07-02T12:52:35;24.30;90.30
3053;DHT22;1536;51.098;6.414;2023-07-02T12:55:04;24.20;90.60
3053;DHT22;1536;51.098;6.414;2023-07-02T12:57:31;24.20;90.80
3053;DHT22;1536;51.098;6.414;2023-07-02T12:59:58;24.20;91.00
3053;DHT22;1536;51.098;6.414;2023-07-02T13:02:25;24.10;91.50
3053;DHT22;1536;51.098;6.414;2023-07-02T13:04:52;24.10;91.30
3053;DHT22;1536;51.098;6.414;2023-07-02T13:07:19;24.10;91.50
3053;DHT22;1536;51.098;6.414;2023-07-02T13:09:47;24.10;91.30
3053;DHT22;1536;51.098;6.414;2023-07-02T13:12:17;24.10;91.50
3053;DHT22;1536;51.098;6.414;2023-07-02T13:14:45;24.00;91.60
3053;DHT22;1536;51.098;6.414;2023-07-02T13:17:12;24.00;91.50
3053;DHT22;1536;51.098;6.414;2023-07-02T13:19:39;23.90;91.50
3053;DHT22;1536;51.098;6.414;2023-07-02T13:22:06;23.90;91.60
3053;DHT22;1536;51.098;6.414;2023-07-02T13:24:33;23.90;91.70
3053;DHT22;1536;51.098;6.414;2023-07-02T13:27:03;23.90;91.50
3053;DHT22;1536;51.098;6.414;2023-07-02T13:29:32;24.10;91.30
3053;DHT22;1536;51.098;6.414;2023-07-02T13:31:59;24.20;91.60
3053;DHT22;1536;51.098;6.414;2023-07-02T13:34:26;24.50;91.50
3053;DHT22;1536;51.098;6.414;2023-07-02T13:36:52;24.60;91.20
3053;DHT22;1536;51.098;6.414;2023-07-02T13:39:19;24.70;90.90
3053;DHT22;1536;51.098;6.414;2023-07-02T13:41:46;24.80;90.90
3053;DHT22;1536;51.098;6.414;2023-07-02T13:44:14;24.80;90.90
3053;DHT22;1536;51.098;6.414;2023-07-02T13:46:43;24.80;91.10
3053;DHT22;1536;51.098;6.414;2023-07-02T13:49:11;25.00;91.20
3053;DHT22;1536;51.098;6.414;2023-07-02T13:51:38;25.10;90.90
3053;DHT22;1536;51.098;6.414;2023-07-02T13:54:06;25.10;90.40
3053;DHT22;1536;51.098;6.414;2023-07-02T13:56:33;25.20;90.00
3053;DHT22;1536;51.098;6.414;2023-07-02T13:59:03;25.30;90.00
3053;DHT22;1536;51.098;6.414;2023-07-02T14:01:30;25.20;89.90
3053;DHT22;1536;51.098;6.414;2023-07-02T14:03:59;25.10;90.00
3053;DHT22;1536;51.098;6.414;2023-07-02T14:06:26;25.00;90.40
3053;DHT22;1536;51.098;6.414;2023-07-02T14:08:53;25.00;90.60
3053;DHT22;1536;51.098;6.414;2023-07-02T14:11:21;25.00;90.80
3053;DHT22;1536;51.098;6.414;2023-07-02T14:13:48;25.10;90.30
3053;DHT22;1536;51.098;6.414;2023-07-02T14:16:17;25.20;90.40
3053;DHT22;1536;51.098;6.414;2023-07-02T14:18:44;25.30;90.20
3053;DHT22;1536;51.098;6.414;2023-07-02T14:21:11;25.40;90.10
3053;DHT22;1536;51.098;6.414;2023-07-02T14:23:37;25.50;89.10
3053;DHT22;1536;51.098;6.414;2023-07-02T14:26:05;25.70;89.60
3053;DHT22;1536;51.098;6.414;2023-07-02T14:28:31;25.70;89.50
3053;DHT22;1536;51.098;6.414;2023-07-02T14:30:59;25.80;89.30
3053;DHT22;1536;51.098;6.414;2023-07-02T14:33:29;25.80;89.60
3053;DHT22;1536;51.098;6.414;2023-07-02T14:35:57;25.90;89.00
3053;DHT22;1536;51.098;6.414;2023-07-02T14:38:24;25.80;88.30
3053;DHT22;1536;51.098;6.414;2023-07-02T14:40:50;25.70;88.50
3053;DHT22;1536;51.098;6.414;2023-07-02T14:43:17;25.60;89.10
3053;DHT22;1536;51.098;6.414;2023-07-02T14:45:47;25.50;89.30
3053;DHT22;1536;51.098;6.414;2023-07-02T14:48:14;25.60;88.70
3053;DHT22;1536;51.098;6.414;2023-07-02T14:50:48;25.50;88.40
3053;DHT22;1536;51.098;6.414;2023-07-02T14:53:15;25.50;88.40
3053;DHT22;1536;51.098;6.414;2023-07-02T14:55:42;25.40;88.80
3053;DHT22;1536;51.098;6.414;2023-07-02T14:58:12;25.30;88.60
3053;DHT22;1536;51.098;6.414;2023-07-02T15:00:43;25.30;88.80
3053;DHT22;1536;51.098;6.414;2023-07-02T15:03:10;25.50;88.60
3053;DHT22;1536;51.098;6.414;2023-07-02T15:05:38;25.70;88.60
3053;DHT22;1536;51.098;6.414;2023-07-02T15:08:15;25.90;88.20
3053;DHT22;1536;51.098;6.414;2023-07-02T15:10:45;25.90;87.60
3053;DHT22;1536;51.098;6.414;2023-07-02T15:13:14;26.00;87.70
3053;DHT22;1536;51.098;6.414;2023-07-02T15:15:44;25.90;87.40
3053;DHT22;1536;51.098;6.414;2023-07-02T15:18:11;25.80;87.70
3053;DHT22;1536;51.098;6.414;2023-07-02T15:20:38;25.70;87.80
3053;DHT22;1536;51.098;6.414;2023-07-02T15:23:06;25.60;88.50
3053;DHT22;1536;51.098;6.414;2023-07-02T15:25:33;25.60;88.40
3053;DHT22;1536;51.098;6.414;2023-07-02T15:28:01;25.80;87.80
3053;DHT22;1536;51.098;6.414;2023-07-02T15:30:28;25.70;87.10
3053;DHT22;1536;51.098;6.414;2023-07-02T15:32:55;25.70;86.30
3053;DHT22;1536;51.098;6.414;2023-07-02T15:35:23;25.70;86.50
3053;DHT22;1536;51.098;6.414;2023-07-02T15:37:49;25.80;87.00
3053;DHT22;1536;51.098;6.414;2023-07-02T15:40:18;25.70;87.00
3053;DHT22;1536;51.098;6.414;2023-07-02T15:42:44;25.50;86.60
3053;DHT22;1536;51.098;6.414;2023-07-02T15:45:11;25.40;86.60
3053;DHT22;1536;51.098;6.414;2023-07-02T15:47:38;25.40;86.80
3053;DHT22;1536;51.098;6.414;2023-07-02T15:50:07;25.50;86.90
3053;DHT22;1536;51.098;6.414;2023-07-02T15:52:33;25.40;86.80
3053;DHT22;1536;51.098;6.414;2023-07-02T15:55:01;25.30;87.30
3053;DHT22;1536;51.098;6.414;2023-07-02T15:57:30;25.30;87.60
3053;DHT22;1536;51.098;6.414;2023-07-02T15:59:56;25.40;87.40
3053;DHT22;1536;51.098;6.414;2023-07-02T16:02:23;25.40;87.10
3053;DHT22;1536;51.098;6.414;2023-07-02T16:04:50;25.40;86.80
3053;DHT22;1536;51.098;6.414;2023-07-02T16:07:18;25.30;86.80